createdAt,value
2018-09-20T00:00:36.168Z,4.43
2018-09-20T00:03:04.115Z,4.77
2018-09-20T00:05:31.971Z,4.17
2018-09-20T00:07:59.827Z,4.40
2018-09-20T00:10:27.712Z,4.53
2018-09-20T00:12:55.680Z,4.67
2018-09-20T00:15:23.531Z,4.87
2018-09-20T00:17:51.407Z,4.80
2018-09-20T00:20:19.365Z,4.47
2018-09-20T00:22:47.258Z,4.30
2018-09-20T00:25:15.127Z,4.93
2018-09-20T00:27:43.079Z,4.57
2018-09-20T00:30:10.997Z,4.83
2018-09-20T00:32:38.879Z,4.90
2018-09-20T00:35:06.776Z,4.50
2018-09-20T00:37:34.634Z,4.80
2018-09-20T00:40:02.563Z,5.00
2018-09-20T00:42:30.587Z,4.60
2018-09-20T00:44:58.492Z,4.93
2018-09-20T00:47:27.525Z,4.23
2018-09-20T00:49:55.403Z,4.70
2018-09-20T00:52:23.259Z,5.17
2018-09-20T00:54:51.247Z,4.83
2018-09-20T00:57:19.112Z,4.70
2018-09-20T00:59:46.983Z,4.67
2018-09-20T01:02:14.968Z,5.40
2018-09-20T01:04:42.832Z,4.67
2018-09-20T01:07:10.780Z,4.93
2018-09-20T01:09:38.675Z,4.73
2018-09-20T01:12:06.567Z,4.80
2018-09-20T01:14:34.497Z,4.80
2018-09-20T01:17:02.388Z,4.70
2018-09-20T01:19:30.307Z,5.33
2018-09-20T01:21:58.165Z,4.63
2018-09-20T01:24:26.023Z,4.40
2018-09-20T01:26:54.003Z,5.10
2018-09-20T01:29:21.883Z,4.73
2018-09-20T01:31:49.807Z,4.93
2018-09-20T01:34:17.663Z,4.80
2018-09-20T01:36:45.596Z,4.77
2018-09-20T01:39:15.167Z,4.83
2018-09-20T01:41:43.059Z,4.83
2018-09-20T01:44:11.635Z,5.07
2018-09-20T01:46:39.518Z,5.33
2018-09-20T01:49:08.015Z,4.87
2018-09-20T01:51:37.674Z,4.50
2018-09-20T01:54:05.739Z,5.00
2018-09-20T01:56:33.648Z,5.17
2018-09-20T01:59:01.523Z,5.53
2018-09-20T02:01:29.575Z,4.83
2018-09-20T02:03:57.519Z,5.03
2018-09-20T02:06:25.437Z,4.93
2018-09-20T02:08:53.317Z,4.93
2018-09-20T02:11:21.179Z,5.30
2018-09-20T02:13:49.119Z,5.00
2018-09-20T02:16:17.010Z,5.50
2018-09-20T02:18:44.955Z,4.90
2018-09-20T02:21:12.819Z,5.33
2018-09-20T02:23:40.687Z,4.63
2018-09-20T02:26:08.587Z,5.10
2018-09-20T02:28:39.423Z,5.73
2018-09-20T02:31:07.475Z,5.60
2018-09-20T02:33:35.331Z,5.10
2018-09-20T02:36:04.355Z,5.27
2018-09-20T02:38:32.215Z,5.20
2018-09-20T02:41:00.197Z,4.80
2018-09-20T02:43:28.132Z,5.50
2018-09-20T02:45:56.011Z,4.43
2018-09-20T02:48:23.877Z,4.93
2018-09-20T02:50:51.731Z,5.20
2018-09-20T02:53:19.635Z,4.37
2018-09-20T02:55:47.495Z,5.13
2018-09-20T02:58:15.400Z,3.90
2018-09-20T03:00:43.235Z,4.53
2018-09-20T03:03:11.175Z,4.17
2018-09-20T03:05:39.027Z,4.43
2018-09-20T03:08:06.953Z,4.43
2018-09-20T03:10:34.835Z,5.10
2018-09-20T03:13:02.747Z,4.60
2018-09-20T03:15:30.671Z,5.00
2018-09-20T03:17:58.527Z,4.97
2018-09-20T03:20:26.403Z,4.90
2018-09-20T03:22:54.315Z,5.63
2018-09-20T03:25:22.171Z,4.77
2018-09-20T03:27:50.050Z,4.40
2018-09-20T03:30:18.060Z,4.97
2018-09-20T03:32:45.901Z,4.77
2018-09-20T03:35:13.792Z,4.77
2018-09-20T03:37:41.708Z,4.70
2018-09-20T03:40:09.631Z,4.87
2018-09-20T03:42:37.487Z,4.57
2018-09-20T03:45:05.348Z,5.07
2018-09-20T03:47:33.224Z,8.10
2018-09-20T03:50:01.158Z,4.40
2018-09-20T03:52:29.035Z,4.77
2018-09-20T03:54:56.983Z,4.57
2018-09-20T03:57:24.849Z,4.87
2018-09-20T03:59:53.151Z,5.00
2018-09-20T04:02:20.995Z,4.83
2018-09-20T04:04:48.863Z,5.10
2018-09-20T04:07:16.730Z,5.27
2018-09-20T04:09:44.657Z,5.23
2018-09-20T04:12:12.491Z,5.53
2018-09-20T04:14:40.385Z,4.97
2018-09-20T04:17:08.247Z,4.90
2018-09-20T04:19:36.183Z,4.87
2018-09-20T04:22:04.088Z,5.03
2018-09-20T04:24:31.947Z,4.83
2018-09-20T04:26:59.875Z,5.03
2018-09-20T04:29:27.739Z,5.17
2018-09-20T04:31:55.800Z,4.63
2018-09-20T04:34:23.679Z,5.50
2018-09-20T04:36:51.543Z,4.97
2018-09-20T04:39:20.737Z,5.10
2018-09-20T04:41:48.597Z,5.07
2018-09-20T04:44:16.487Z,5.03
2018-09-20T04:46:44.371Z,5.13
2018-09-20T04:49:12.315Z,4.70
2018-09-20T04:51:43.061Z,5.73
2018-09-20T04:54:10.931Z,5.47
2018-09-20T04:56:38.799Z,4.90
2018-09-20T04:59:06.671Z,4.73
2018-09-20T05:01:34.625Z,4.97
2018-09-20T05:04:02.497Z,5.17
2018-09-20T05:06:30.435Z,5.43
2018-09-20T05:08:58.328Z,5.03
2018-09-20T05:11:26.216Z,4.70
2018-09-20T05:13:54.087Z,5.70
2018-09-20T05:16:21.955Z,6.67
2018-09-20T05:18:49.891Z,7.53
2018-09-20T05:21:17.851Z,6.23
2018-09-20T05:23:45.719Z,5.23
2018-09-20T05:26:13.732Z,5.27
2018-09-20T05:28:41.607Z,4.63
2018-09-20T05:31:11.437Z,5.30
2018-09-20T05:33:39.651Z,4.77
2018-09-20T05:36:07.559Z,5.57
2018-09-20T05:38:35.487Z,5.40
2018-09-20T05:41:03.355Z,5.43
2018-09-20T05:43:31.333Z,5.17
2018-09-20T05:45:59.127Z,4.93
2018-09-20T05:48:26.991Z,5.03
2018-09-20T05:50:54.970Z,5.83
2018-09-20T05:53:22.891Z,6.23
2018-09-20T05:55:50.751Z,5.70
2018-09-20T05:58:18.711Z,5.60
2018-09-20T06:00:46.623Z,5.30
2018-09-20T06:03:14.555Z,5.07
2018-09-20T06:05:42.886Z,5.17
2018-09-20T06:08:10.807Z,5.20
2018-09-20T06:10:38.775Z,5.10
2018-09-20T06:13:06.793Z,5.90
2018-09-20T06:15:34.647Z,4.97
2018-09-20T06:18:02.514Z,6.00
2018-09-20T06:20:30.443Z,6.20
2018-09-20T06:22:58.412Z,6.20
2018-09-20T06:25:26.279Z,6.10
2018-09-20T06:27:54.159Z,6.40
2018-09-20T06:30:22.020Z,6.20
2018-09-20T06:32:49.927Z,7.23
2018-09-20T06:35:18.178Z,6.70
2018-09-20T06:37:46.047Z,6.67
2018-09-20T06:40:13.920Z,6.77
2018-09-20T06:42:41.790Z,6.73
2018-09-20T06:45:09.960Z,6.27
2018-09-20T06:47:37.835Z,6.73
2018-09-20T06:50:05.724Z,6.33
2018-09-20T06:52:33.595Z,7.20
2018-09-20T06:55:01.462Z,6.77
2018-09-20T06:57:33.994Z,7.10
2018-09-20T07:00:02.208Z,6.80
2018-09-20T07:02:30.148Z,6.90
2018-09-20T07:04:58.011Z,6.07
2018-09-20T07:07:26.443Z,5.80
2018-09-20T07:09:54.330Z,5.77
2018-09-20T07:12:22.219Z,5.47
2018-09-20T07:14:50.100Z,6.60
2018-09-20T07:17:17.963Z,6.10
2018-09-20T07:19:45.844Z,5.43
2018-09-20T07:22:13.719Z,5.30
2018-09-20T07:24:41.619Z,4.70
2018-09-20T07:27:09.542Z,4.97
2018-09-20T07:29:37.428Z,4.93
2018-09-20T07:32:05.364Z,4.90
2018-09-20T07:34:33.242Z,5.30
2018-09-20T07:37:01.115Z,5.77
2018-09-20T07:39:28.999Z,5.77
2018-09-20T07:41:56.871Z,5.13
2018-09-20T07:44:24.744Z,6.60
2018-09-20T07:46:52.621Z,6.20
2018-09-20T07:49:20.510Z,7.57
2018-09-20T07:51:53.405Z,6.50
2018-09-20T07:54:21.262Z,7.20
2018-09-20T07:56:49.184Z,6.77
2018-09-20T07:59:17.025Z,6.53
2018-09-20T08:01:45.057Z,5.70
2018-09-20T08:04:12.907Z,4.60
2018-09-20T08:06:40.804Z,5.20
2018-09-20T08:09:09.731Z,6.13
2018-09-20T08:11:37.620Z,5.33
2018-09-20T08:14:05.519Z,4.77
2018-09-20T08:16:33.423Z,4.23
2018-09-20T08:19:01.407Z,4.37
2018-09-20T08:21:29.340Z,4.13
2018-09-20T08:23:57.191Z,4.37
2018-09-20T08:26:25.057Z,3.40
2018-09-20T08:28:53.155Z,3.93
2018-09-20T08:31:21.018Z,4.37
2018-09-20T08:33:48.911Z,3.77
2018-09-20T08:36:16.787Z,3.73
2018-09-20T08:38:44.775Z,3.50
2018-09-20T08:41:12.644Z,3.53
2018-09-20T08:43:40.531Z,3.47
2018-09-20T08:46:08.396Z,3.00
2018-09-20T08:48:36.274Z,2.90
2018-09-20T08:51:04.266Z,3.90
2018-09-20T08:53:32.039Z,3.33
2018-09-20T08:55:59.915Z,3.60
2018-09-20T08:58:31.396Z,3.40
2018-09-20T09:00:59.859Z,4.07
2018-09-20T09:03:27.720Z,3.20
2018-09-20T09:05:55.584Z,4.00
2018-09-20T09:08:23.567Z,4.07
2018-09-20T09:10:51.427Z,3.17
2018-09-20T09:13:19.360Z,2.97
2018-09-20T09:15:47.358Z,3.93
2018-09-20T09:18:15.224Z,3.70
2018-09-20T09:20:43.127Z,3.87
2018-09-20T09:23:10.995Z,3.73
2018-09-20T09:25:38.879Z,4.10
2018-09-20T09:28:06.841Z,3.80
2018-09-20T09:30:34.754Z,3.63
2018-09-20T09:33:02.615Z,3.70
2018-09-20T09:35:32.203Z,3.87
2018-09-20T09:38:00.070Z,3.60
2018-09-20T09:40:27.951Z,3.47
2018-09-20T09:42:55.823Z,3.70
2018-09-20T09:45:23.675Z,3.97
2018-09-20T09:47:51.567Z,3.63
2018-09-20T09:50:19.465Z,3.80
2018-09-20T09:52:47.380Z,2.87
2018-09-20T09:55:15.256Z,3.27
2018-09-20T09:57:43.166Z,3.23
2018-09-20T10:00:11.271Z,3.90
2018-09-20T10:02:39.201Z,3.50
2018-09-20T10:05:07.051Z,3.60
2018-09-20T10:07:34.928Z,4.10
2018-09-20T10:10:02.801Z,3.67
2018-09-20T10:12:30.717Z,3.30
2018-09-20T10:15:05.144Z,3.20
2018-09-20T10:17:32.999Z,3.90
2018-09-20T10:20:00.885Z,3.93
2018-09-20T10:22:28.735Z,3.30
2018-09-20T10:24:56.590Z,3.47
2018-09-20T10:27:24.519Z,3.40
2018-09-20T10:29:52.383Z,3.60
2018-09-20T10:32:20.264Z,3.80
2018-09-20T10:34:48.123Z,3.43
2018-09-20T10:37:15.987Z,3.00
2018-09-20T10:39:43.872Z,3.00
2018-09-20T10:42:11.733Z,3.67
2018-09-20T10:44:41.378Z,3.23
2018-09-20T10:47:09.288Z,2.90
2018-09-20T10:49:37.129Z,3.23
2018-09-20T10:52:05.032Z,3.10
2018-09-20T10:54:32.950Z,3.30
2018-09-20T10:57:00.894Z,2.97
2018-09-20T10:59:28.834Z,2.80
2018-09-20T11:01:56.696Z,2.97
2018-09-20T11:04:24.597Z,2.73
2018-09-20T11:06:52.487Z,3.00
2018-09-20T11:09:20.475Z,3.17
2018-09-20T11:11:48.342Z,3.27
2018-09-20T11:14:16.227Z,2.90
2018-09-20T11:16:44.147Z,3.00
2018-09-20T11:19:12.099Z,3.30
2018-09-20T11:21:39.999Z,2.70
2018-09-20T11:24:14.473Z,3.03
2018-09-20T11:26:42.365Z,2.90
2018-09-20T11:29:10.267Z,3.37
2018-09-20T11:31:38.163Z,2.67
2018-09-20T11:34:06.168Z,2.97
2018-09-20T11:36:34.029Z,2.73
2018-09-20T11:39:01.935Z,3.03
2018-09-20T11:41:29.855Z,2.47
2018-09-20T11:43:57.735Z,2.80
2018-09-20T11:46:25.615Z,2.77
2018-09-20T11:48:53.480Z,2.97
2018-09-20T11:51:23.075Z,3.37
2018-09-20T11:53:51.006Z,2.33
2018-09-20T11:56:18.869Z,2.40
2018-09-20T11:58:46.867Z,2.63
2018-09-20T12:01:14.760Z,2.43
2018-09-20T12:03:42.671Z,2.73
2018-09-20T12:06:10.552Z,2.87
2018-09-20T12:08:38.747Z,3.20
2018-09-20T12:11:06.628Z,3.30
2018-09-20T12:13:34.504Z,2.97
2018-09-20T12:16:02.367Z,2.73
2018-09-20T12:18:30.327Z,2.33
2018-09-20T12:20:58.187Z,2.50
2018-09-20T12:23:26.087Z,2.37
2018-09-20T12:25:54.050Z,2.47
2018-09-20T12:28:21.837Z,2.37
2018-09-20T12:30:49.971Z,2.53
2018-09-20T12:33:17.847Z,2.50
2018-09-20T12:35:45.882Z,2.27
2018-09-20T12:38:13.757Z,2.23
2018-09-20T12:40:41.559Z,2.17
2018-09-20T12:43:09.500Z,3.10
2018-09-20T12:45:37.298Z,2.30
2018-09-20T12:48:05.206Z,2.50
2018-09-20T12:50:33.109Z,2.53
2018-09-20T12:53:00.990Z,2.30
2018-09-20T12:55:28.847Z,2.17
2018-09-20T12:57:56.795Z,2.77
2018-09-20T13:00:24.667Z,2.30
2018-09-20T13:02:52.559Z,2.63
2018-09-20T13:05:20.427Z,2.20
2018-09-20T13:07:48.289Z,2.03
2018-09-20T13:10:16.155Z,2.80
2018-09-20T13:12:44.020Z,5.03
2018-09-20T13:15:11.876Z,3.37
2018-09-20T13:17:39.790Z,2.30
2018-09-20T13:20:07.667Z,2.50
2018-09-20T13:22:35.511Z,1.90
2018-09-20T13:25:03.391Z,2.10
2018-09-20T13:27:31.261Z,2.47
2018-09-20T13:29:59.235Z,2.90
2018-09-20T13:32:27.124Z,2.47
2018-09-20T13:34:54.983Z,2.60
2018-09-20T13:37:22.865Z,2.47
2018-09-20T13:39:52.223Z,2.53
2018-09-20T13:42:20.188Z,2.33
2018-09-20T13:44:48.091Z,2.30
2018-09-20T13:47:16.282Z,2.40
2018-09-20T13:49:44.155Z,2.57
2018-09-20T13:52:12.039Z,2.30
2018-09-20T13:54:39.891Z,2.33
2018-09-20T13:57:07.750Z,2.70
2018-09-20T13:59:35.639Z,2.73
2018-09-20T14:02:03.512Z,3.00
2018-09-20T14:04:31.379Z,2.17
2018-09-20T14:06:59.251Z,2.50
2018-09-20T14:09:27.163Z,2.67
2018-09-20T14:11:54.999Z,2.33
2018-09-20T14:14:22.881Z,2.90
2018-09-20T14:16:50.759Z,2.60
2018-09-20T14:19:18.691Z,3.00
2018-09-20T14:21:46.884Z,3.67
2018-09-20T14:24:14.756Z,2.90
2018-09-20T14:26:42.659Z,2.70
2018-09-20T14:29:10.530Z,2.60
2018-09-20T14:31:38.399Z,2.37
2018-09-20T14:34:06.487Z,2.47
2018-09-20T14:36:34.381Z,2.90
2018-09-20T14:39:02.275Z,3.17
2018-09-20T14:41:30.207Z,2.90
2018-09-20T14:43:58.104Z,3.27
2018-09-20T14:46:25.964Z,3.23
2018-09-20T14:48:53.823Z,3.23
2018-09-20T14:51:21.695Z,3.10
2018-09-20T14:53:49.563Z,2.70
2018-09-20T14:56:17.435Z,2.77
2018-09-20T14:58:45.311Z,3.00
2018-09-20T15:01:13.175Z,2.93
2018-09-20T15:03:41.062Z,2.57
2018-09-20T15:06:08.928Z,2.70
2018-09-20T15:08:36.819Z,2.97
2018-09-20T15:11:04.728Z,2.97
2018-09-20T15:13:32.657Z,2.90
2018-09-20T15:16:00.535Z,2.83
2018-09-20T15:18:28.427Z,2.87
2018-09-20T15:20:56.294Z,2.60
2018-09-20T15:23:24.190Z,3.00
2018-09-20T15:25:52.031Z,3.07
2018-09-20T15:28:19.897Z,2.93
2018-09-20T15:30:47.780Z,3.10
2018-09-20T15:33:15.675Z,2.93
2018-09-20T15:35:43.541Z,2.97
2018-09-20T15:38:11.415Z,2.80
2018-09-20T15:40:39.294Z,2.93
2018-09-20T15:43:07.163Z,3.00
2018-09-20T15:45:35.019Z,3.03
2018-09-20T15:48:02.888Z,3.40
2018-09-20T15:50:30.773Z,2.90
2018-09-20T15:52:58.635Z,3.00
2018-09-20T15:55:26.491Z,2.70
2018-09-20T15:57:54.416Z,2.60
2018-09-20T16:00:22.247Z,3.40
2018-09-20T16:02:50.125Z,2.70
2018-09-20T16:05:18.013Z,3.00
2018-09-20T16:07:45.967Z,3.00
2018-09-20T16:10:13.868Z,3.50
2018-09-20T16:12:43.571Z,3.37
2018-09-20T16:15:11.436Z,2.70
2018-09-20T16:17:39.320Z,2.57
2018-09-20T16:20:07.341Z,2.73
2018-09-20T16:22:35.215Z,2.87
2018-09-20T16:25:03.085Z,2.90
2018-09-20T16:27:30.939Z,2.93
2018-09-20T16:30:05.111Z,3.67
2018-09-20T16:32:38.974Z,2.80
2018-09-20T16:35:13.460Z,2.80
2018-09-20T16:37:44.776Z,2.97
2018-09-20T16:40:13.769Z,2.90
2018-09-20T16:42:42.567Z,3.13
2018-09-20T16:45:10.459Z,2.90
2018-09-20T16:47:38.315Z,2.90
2018-09-20T16:50:06.200Z,3.20
2018-09-20T16:52:34.112Z,3.00
2018-09-20T16:55:01.972Z,3.60
2018-09-20T16:57:29.831Z,3.20
2018-09-20T16:59:57.695Z,3.40
2018-09-20T17:02:25.577Z,3.20
2018-09-20T17:05:22.851Z,3.30
2018-09-20T17:07:50.727Z,3.40
2018-09-20T17:10:18.615Z,2.70
2018-09-20T17:12:46.605Z,3.40
2018-09-20T17:15:14.687Z,2.77
2018-09-20T17:17:42.553Z,3.50
2018-09-20T17:20:10.547Z,3.17
2018-09-20T17:22:38.507Z,3.37
2018-09-20T17:25:06.386Z,3.70
2018-09-20T17:27:35.796Z,3.37
2018-09-20T17:30:03.840Z,3.57
2018-09-20T17:32:31.720Z,3.23
2018-09-20T17:34:59.747Z,3.20
2018-09-20T17:37:28.263Z,3.67
2018-09-20T17:39:56.732Z,3.60
2018-09-20T17:42:25.656Z,3.20
2018-09-20T17:44:53.528Z,3.30
2018-09-20T17:47:21.480Z,3.33
2018-09-20T17:49:49.327Z,3.27
2018-09-20T17:52:17.436Z,3.77
2018-09-20T17:54:45.516Z,3.43
2018-09-20T17:57:13.823Z,4.37
2018-09-20T17:59:41.783Z,3.70
2018-09-20T18:02:09.756Z,3.20
2018-09-20T18:04:37.766Z,3.93
2018-09-20T18:07:05.719Z,3.43
2018-09-20T18:09:33.719Z,3.23
2018-09-20T18:12:01.691Z,3.53
2018-09-20T18:14:29.812Z,3.10
2018-09-20T18:16:57.855Z,4.13
2018-09-20T18:19:25.743Z,3.20
2018-09-20T18:21:53.768Z,2.97
2018-09-20T18:24:21.823Z,3.53
2018-09-20T18:26:50.071Z,3.53
2018-09-20T18:29:17.983Z,3.40
2018-09-20T18:31:45.922Z,3.60
2018-09-20T18:34:13.918Z,3.37
2018-09-20T18:36:42.038Z,5.73
2018-09-20T18:39:12.271Z,3.40
2018-09-20T18:41:40.574Z,4.27
2018-09-20T18:44:09.119Z,3.90
2018-09-20T18:46:36.996Z,4.13
2018-09-20T18:49:05.044Z,3.93
2018-09-20T18:51:35.621Z,5.63
2018-09-20T18:54:03.556Z,3.83
2018-09-20T18:56:31.517Z,3.57
2018-09-20T18:58:59.450Z,3.90
2018-09-20T19:01:27.354Z,3.50
2018-09-20T19:03:55.256Z,4.10
2018-09-20T19:06:24.159Z,4.20
2018-09-20T19:08:52.096Z,4.30
2018-09-20T19:11:19.971Z,4.00
2018-09-20T19:13:47.839Z,4.10
2018-09-20T19:16:16.787Z,3.90
2018-09-20T19:18:44.646Z,3.60
2018-09-20T19:21:12.581Z,4.07
2018-09-20T19:23:40.428Z,4.00
2018-09-20T19:26:08.391Z,3.47
2018-09-20T19:28:36.399Z,3.93
2018-09-20T19:31:04.371Z,4.00
2018-09-20T19:33:32.295Z,3.83
2018-09-20T19:36:00.166Z,4.37
2018-09-20T19:38:28.096Z,4.20
2018-09-20T19:40:55.979Z,3.93
2018-09-20T19:43:23.968Z,3.57
2018-09-20T19:45:52.084Z,3.83
2018-09-20T19:54:01.563Z,4.30
2018-09-20T19:56:29.463Z,4.00
2018-09-20T19:58:57.407Z,3.70
2018-09-20T20:01:25.303Z,4.50
2018-09-20T20:03:53.198Z,4.00
2018-09-20T20:06:21.138Z,4.60
2018-09-20T20:08:49.032Z,4.30
2018-09-20T20:11:16.925Z,4.00
2018-09-20T20:13:44.818Z,4.27
2018-09-20T20:16:12.733Z,3.70
2018-09-20T20:18:40.770Z,3.90
2018-09-20T20:21:10.855Z,4.00
2018-09-20T20:23:38.808Z,4.03
2018-09-20T20:26:06.780Z,4.53
2018-09-20T20:28:34.624Z,4.30
2018-09-20T20:31:02.608Z,4.83
2018-09-20T20:33:32.207Z,3.80
2018-09-20T20:36:00.157Z,5.40
2018-09-20T20:38:28.150Z,4.37
2018-09-20T20:40:56.186Z,3.90
2018-09-20T20:43:24.160Z,4.87
2018-09-20T20:45:52.111Z,4.37
2018-09-20T20:48:20.083Z,4.60
2018-09-20T20:50:48.027Z,5.07
2018-09-20T20:53:15.991Z,5.60
2018-09-20T20:55:43.875Z,4.93
2018-09-20T20:58:11.787Z,5.37
2018-09-20T21:00:39.819Z,5.17
2018-09-20T21:03:07.891Z,13.40
2018-09-20T21:05:35.859Z,6.60
2018-09-20T21:08:03.848Z,6.17
2018-09-20T21:10:31.875Z,6.17
2018-09-20T21:12:59.847Z,5.83
2018-09-20T21:15:27.821Z,4.30
2018-09-20T21:17:55.848Z,4.50
2018-09-20T21:20:23.730Z,4.60
2018-09-20T21:22:51.622Z,4.00
2018-09-20T21:25:19.499Z,5.53
2018-09-20T21:27:47.523Z,6.90
2018-09-20T21:30:15.435Z,6.77
2018-09-20T21:32:43.348Z,4.70
2018-09-20T21:35:11.217Z,3.93
2018-09-20T21:37:39.238Z,4.70
2018-09-20T21:40:07.151Z,5.23
2018-09-20T21:42:35.078Z,4.73
2018-09-20T21:45:02.988Z,4.63
2018-09-20T21:47:30.858Z,6.60
2018-09-20T21:49:58.730Z,5.43
2018-09-20T21:52:26.665Z,5.60
2018-09-20T21:54:54.614Z,6.90
2018-09-20T21:57:22.491Z,6.83
2018-09-20T21:59:50.391Z,6.40
2018-09-20T22:02:23.876Z,7.07
2018-09-20T22:04:51.808Z,6.57
2018-09-20T22:07:19.723Z,6.67
2018-09-20T22:09:47.591Z,5.60
2018-09-20T22:12:15.536Z,5.03
2018-09-20T22:14:43.426Z,4.97
2018-09-20T22:17:11.354Z,4.80
2018-09-20T22:19:39.239Z,5.27
2018-09-20T22:22:07.350Z,4.80
2018-09-20T22:24:35.365Z,5.00
2018-09-20T22:27:03.242Z,6.27
2018-09-20T22:29:37.672Z,4.97
2018-09-20T22:32:05.660Z,5.97
2018-09-20T22:34:33.527Z,5.10
2018-09-20T22:37:01.411Z,5.43
2018-09-20T22:39:29.331Z,5.30
2018-09-20T22:41:57.291Z,4.83
2018-09-20T22:44:25.223Z,4.80
2018-09-20T22:46:53.135Z,5.10
2018-09-20T22:49:21.015Z,4.77
2018-09-20T22:51:52.779Z,4.80
2018-09-20T22:54:20.721Z,4.90
2018-09-20T22:56:48.591Z,5.43
2018-09-20T22:59:16.523Z,5.10
2018-09-20T23:01:44.433Z,5.00
2018-09-20T23:04:12.391Z,4.50
2018-09-20T23:06:40.272Z,4.97
2018-09-20T23:09:08.975Z,4.73
2018-09-20T23:11:36.851Z,5.13
2018-09-20T23:14:04.847Z,5.20
2018-09-20T23:16:32.759Z,4.87
2018-09-20T23:19:00.642Z,4.00
2018-09-20T23:21:28.590Z,4.87
2018-09-20T23:23:59.462Z,4.97
2018-09-20T23:26:27.395Z,4.60
2018-09-20T23:28:55.271Z,4.90
2018-09-20T23:31:23.159Z,5.17
2018-09-20T23:33:51.024Z,4.83
2018-09-20T23:36:18.886Z,4.97
2018-09-20T23:38:46.780Z,5.13
2018-09-20T23:41:14.646Z,5.67
2018-09-20T23:43:42.518Z,5.40
2018-09-20T23:46:10.386Z,5.27
2018-09-20T23:48:38.325Z,5.40
2018-09-20T23:51:06.315Z,4.80
2018-09-20T23:53:34.183Z,5.07
2018-09-20T23:56:02.203Z,5.83
2018-09-20T23:58:30.207Z,4.83
